sensor_id;sensor_type;location;lat;lon;timestamp;P1;durP1;ratioP1;P2;durP2;ratioP2
70487;SDS011;57976;48.174;16.370;2022-10-03T00:04:31;3.60;;;0.70;;
70487;SDS011;57976;48.174;16.370;2022-10-03T00:06:53;3.30;;;0.60;;
70487;SDS011;57976;48.174;16.370;2022-10-03T00:09:13;3.00;;;0.60;;
70487;SDS011;57976;48.174;16.370;2022-10-03T00:11:34;4.00;;;0.70;;
70487;SDS011;57976;48.174;16.370;2022-10-03T00:13:49;2.80;;;0.60;;
70487;SDS011;57976;48.174;16.370;2022-10-03T00:16:03;2.60;;;0.60;;
70487;SDS011;57976;48.174;16.370;2022-10-03T00:18:19;2.90;;;0.70;;
70487;SDS011;57976;48.174;16.370;2022-10-03T00:23:11;2.90;;;0.70;;
70487;SDS011;57976;48.174;16.370;2022-10-03T00:25:26;3.60;;;0.60;;
70487;SDS011;57976;48.174;16.370;2022-10-03T00:27:40;3.10;;;0.60;;
70487;SDS011;57976;48.174;16.370;2022-10-03T00:29:54;3.90;;;0.60;;
70487;SDS011;57976;48.174;16.370;2022-10-03T00:32:19;3.40;;;0.70;;
70487;SDS011;57976;48.174;16.370;2022-10-03T00:34:37;2.90;;;0.60;;
70487;SDS011;57976;48.174;16.370;2022-10-03T00:37:05;3.40;;;0.70;;
70487;SDS011;57976;48.174;16.370;2022-10-03T00:39:28;3.20;;;0.80;;
70487;SDS011;57976;48.174;16.370;2022-10-03T00:47:22;3.20;;;0.90;;
70487;SDS011;57976;48.174;16.370;2022-10-03T00:52:16;3.30;;;0.90;;
70487;SDS011;57976;48.174;16.370;2022-10-03T00:54:34;2.30;;;0.80;;
70487;SDS011;57976;48.174;16.370;2022-10-03T00:56:54;3.00;;;0.80;;
70487;SDS011;57976;48.174;16.370;2022-10-03T00:59:21;4.30;;;1.00;;
70487;SDS011;57976;48.174;16.370;2022-10-03T01:01:37;2.80;;;0.80;;
70487;SDS011;57976;48.174;16.370;2022-10-03T01:03:49;4.50;;;0.90;;
70487;SDS011;57976;48.174;16.370;2022-10-03T01:06:03;3.60;;;0.70;;
70487;SDS011;57976;48.174;16.370;2022-10-03T01:08:20;3.20;;;0.80;;
70487;SDS011;57976;48.174;16.370;2022-10-03T01:10:40;3.10;;;0.90;;
70487;SDS011;57976;48.174;16.370;2022-10-03T01:15:29;3.20;;;0.80;;
70487;SDS011;57976;48.174;16.370;2022-10-03T01:17:52;3.40;;;0.80;;
70487;SDS011;57976;48.174;16.370;2022-10-03T01:22:41;2.90;;;0.80;;
70487;SDS011;57976;48.174;16.370;2022-10-03T01:25:11;3.10;;;0.70;;
70487;SDS011;57976;48.174;16.370;2022-10-03T01:27:25;3.40;;;0.80;;
70487;SDS011;57976;48.174;16.370;2022-10-03T01:29:42;3.10;;;0.80;;
70487;SDS011;57976;48.174;16.370;2022-10-03T01:31:52;3.10;;;0.70;;
70487;SDS011;57976;48.174;16.370;2022-10-03T01:34:06;3.80;;;0.90;;
70487;SDS011;57976;48.174;16.370;2022-10-03T01:36:19;3.00;;;0.80;;
70487;SDS011;57976;48.174;16.370;2022-10-03T01:38:35;3.30;;;0.90;;
70487;SDS011;57976;48.174;16.370;2022-10-03T01:40:48;3.50;;;0.70;;
70487;SDS011;57976;48.174;16.370;2022-10-03T01:43:02;3.20;;;0.70;;
70487;SDS011;57976;48.174;16.370;2022-10-03T01:45:23;3.80;;;0.80;;
70487;SDS011;57976;48.174;16.370;2022-10-03T01:47:33;2.80;;;0.70;;
70487;SDS011;57976;48.174;16.370;2022-10-03T01:49:45;3.20;;;0.90;;
70487;SDS011;57976;48.174;16.370;2022-10-03T01:51:58;4.10;;;1.00;;
70487;SDS011;57976;48.174;16.370;2022-10-03T01:54:11;5.00;;;0.90;;
70487;SDS011;57976;48.174;16.370;2022-10-03T01:56:26;3.40;;;0.80;;
70487;SDS011;57976;48.174;16.370;2022-10-03T01:58:39;3.10;;;0.80;;
70487;SDS011;57976;48.174;16.370;2022-10-03T02:00:52;3.20;;;0.80;;
70487;SDS011;57976;48.174;16.370;2022-10-03T02:03:04;3.20;;;0.80;;
70487;SDS011;57976;48.174;16.370;2022-10-03T02:05:16;5.50;;;0.90;;
70487;SDS011;57976;48.174;16.370;2022-10-03T02:07:29;4.30;;;0.90;;
70487;SDS011;57976;48.174;16.370;2022-10-03T02:09:47;5.60;;;0.80;;
70487;SDS011;57976;48.174;16.370;2022-10-03T02:12:02;3.50;;;0.90;;
70487;SDS011;57976;48.174;16.370;2022-10-03T02:14:19;5.30;;;1.10;;
70487;SDS011;57976;48.174;16.370;2022-10-03T02:16:32;3.30;;;0.90;;
70487;SDS011;57976;48.174;16.370;2022-10-03T02:18:41;3.60;;;0.90;;
70487;SDS011;57976;48.174;16.370;2022-10-03T02:20:50;3.40;;;1.00;;
70487;SDS011;57976;48.174;16.370;2022-10-03T02:23:20;3.00;;;0.90;;
70487;SDS011;57976;48.174;16.370;2022-10-03T02:25:46;5.70;;;0.90;;
70487;SDS011;57976;48.174;16.370;2022-10-03T02:28:24;3.20;;;0.80;;
70487;SDS011;57976;48.174;16.370;2022-10-03T02:30:54;3.60;;;0.90;;
70487;SDS011;57976;48.174;16.370;2022-10-03T02:33:30;4.60;;;0.90;;
70487;SDS011;57976;48.174;16.370;2022-10-03T02:35:51;4.00;;;0.80;;
70487;SDS011;57976;48.174;16.370;2022-10-03T02:38:27;5.20;;;0.90;;
70487;SDS011;57976;48.174;16.370;2022-10-03T02:46:21;3.90;;;0.80;;
70487;SDS011;57976;48.174;16.370;2022-10-03T02:49:00;4.10;;;1.00;;
70487;SDS011;57976;48.174;16.370;2022-10-03T02:56:51;3.70;;;0.90;;
70487;SDS011;57976;48.174;16.370;2022-10-03T02:59:37;4.60;;;0.90;;
70487;SDS011;57976;48.174;16.370;2022-10-03T03:02:11;3.40;;;0.80;;
70487;SDS011;57976;48.174;16.370;2022-10-03T03:04:55;3.10;;;0.90;;
70487;SDS011;57976;48.174;16.370;2022-10-03T03:07:19;4.30;;;0.90;;
70487;SDS011;57976;48.174;16.370;2022-10-03T03:09:56;4.10;;;0.90;;
70487;SDS011;57976;48.174;16.370;2022-10-03T03:17:45;6.20;;;0.90;;
70487;SDS011;57976;48.174;16.370;2022-10-03T03:19:59;3.60;;;0.80;;
70487;SDS011;57976;48.174;16.370;2022-10-03T03:22:29;4.30;;;0.90;;
70487;SDS011;57976;48.174;16.370;2022-10-03T03:24:44;3.20;;;0.90;;
70487;SDS011;57976;48.174;16.370;2022-10-03T03:27:14;5.20;;;0.90;;
70487;SDS011;57976;48.174;16.370;2022-10-03T03:29:33;3.90;;;0.90;;
70487;SDS011;57976;48.174;16.370;2022-10-03T03:31:48;5.40;;;1.00;;
70487;SDS011;57976;48.174;16.370;2022-10-03T03:34:01;4.60;;;1.10;;
70487;SDS011;57976;48.174;16.370;2022-10-03T03:36:15;3.90;;;0.80;;
70487;SDS011;57976;48.174;16.370;2022-10-03T03:38:28;3.70;;;0.90;;
70487;SDS011;57976;48.174;16.370;2022-10-03T03:40:42;5.00;;;1.00;;
70487;SDS011;57976;48.174;16.370;2022-10-03T03:43:04;4.30;;;0.90;;
70487;SDS011;57976;48.174;16.370;2022-10-03T03:45:34;3.40;;;0.80;;
70487;SDS011;57976;48.174;16.370;2022-10-03T03:47:53;4.40;;;0.90;;
70487;SDS011;57976;48.174;16.370;2022-10-03T03:50:21;4.80;;;0.90;;
70487;SDS011;57976;48.174;16.370;2022-10-03T03:52:36;3.90;;;1.00;;
70487;SDS011;57976;48.174;16.370;2022-10-03T03:55:12;4.80;;;0.90;;
70487;SDS011;57976;48.174;16.370;2022-10-03T03:57:38;5.00;;;1.00;;
70487;SDS011;57976;48.174;16.370;2022-10-03T04:00:05;4.50;;;0.90;;
70487;SDS011;57976;48.174;16.370;2022-10-03T04:02:19;4.50;;;1.10;;
70487;SDS011;57976;48.174;16.370;2022-10-03T04:07:05;4.30;;;0.80;;
70487;SDS011;57976;48.174;16.370;2022-10-03T04:09:41;5.90;;;1.00;;
70487;SDS011;57976;48.174;16.370;2022-10-03T04:12:01;4.10;;;0.90;;
70487;SDS011;57976;48.174;16.370;2022-10-03T04:14:17;5.60;;;1.00;;
70487;SDS011;57976;48.174;16.370;2022-10-03T04:16:42;4.60;;;1.00;;
70487;SDS011;57976;48.174;16.370;2022-10-03T04:18:59;3.40;;;1.00;;
70487;SDS011;57976;48.174;16.370;2022-10-03T04:21:19;4.90;;;1.10;;
70487;SDS011;57976;48.174;16.370;2022-10-03T04:23:47;5.80;;;1.00;;
70487;SDS011;57976;48.174;16.370;2022-10-03T04:26:08;4.20;;;1.00;;
70487;SDS011;57976;48.174;16.370;2022-10-03T04:31:03;4.00;;;1.00;;
70487;SDS011;57976;48.174;16.370;2022-10-03T04:33:20;5.40;;;1.00;;
70487;SDS011;57976;48.174;16.370;2022-10-03T04:35:37;4.00;;;0.90;;
70487;SDS011;57976;48.174;16.370;2022-10-03T04:37:59;4.60;;;1.20;;
70487;SDS011;57976;48.174;16.370;2022-10-03T04:40:22;6.10;;;0.90;;
70487;SDS011;57976;48.174;16.370;2022-10-03T04:42:37;5.20;;;1.10;;
70487;SDS011;57976;48.174;16.370;2022-10-03T04:44:59;6.90;;;1.70;;
70487;SDS011;57976;48.174;16.370;2022-10-03T04:47:13;5.60;;;1.10;;
70487;SDS011;57976;48.174;16.370;2022-10-03T04:49:25;5.70;;;1.20;;
70487;SDS011;57976;48.174;16.370;2022-10-03T04:51:48;4.50;;;1.00;;
70487;SDS011;57976;48.174;16.370;2022-10-03T04:54:00;4.00;;;0.90;;
70487;SDS011;57976;48.174;16.370;2022-10-03T04:56:19;3.90;;;1.00;;
70487;SDS011;57976;48.174;16.370;2022-10-03T04:58:35;4.80;;;1.20;;
70487;SDS011;57976;48.174;16.370;2022-10-03T05:00:48;5.00;;;1.00;;
70487;SDS011;57976;48.174;16.370;2022-10-03T05:03:02;5.90;;;1.10;;
70487;SDS011;57976;48.174;16.370;2022-10-03T05:05:28;5.80;;;1.20;;
70487;SDS011;57976;48.174;16.370;2022-10-03T05:07:49;6.70;;;1.30;;
70487;SDS011;57976;48.174;16.370;2022-10-03T05:10:01;5.20;;;1.00;;
70487;SDS011;57976;48.174;16.370;2022-10-03T05:12:30;4.50;;;1.10;;
70487;SDS011;57976;48.174;16.370;2022-10-03T05:14:47;5.50;;;1.00;;
70487;SDS011;57976;48.174;16.370;2022-10-03T05:17:01;4.30;;;1.00;;
70487;SDS011;57976;48.174;16.370;2022-10-03T05:19:25;5.10;;;1.20;;
70487;SDS011;57976;48.174;16.370;2022-10-03T05:21:43;4.50;;;1.00;;
70487;SDS011;57976;48.174;16.370;2022-10-03T05:23:57;5.60;;;0.80;;
70487;SDS011;57976;48.174;16.370;2022-10-03T05:26:17;5.00;;;1.00;;
70487;SDS011;57976;48.174;16.370;2022-10-03T05:28:49;4.70;;;1.00;;
70487;SDS011;57976;48.174;16.370;2022-10-03T05:31:05;5.90;;;1.00;;
70487;SDS011;57976;48.174;16.370;2022-10-03T05:33:27;5.30;;;1.10;;
70487;SDS011;57976;48.174;16.370;2022-10-03T05:35:46;3.80;;;1.00;;
70487;SDS011;57976;48.174;16.370;2022-10-03T05:38:09;4.70;;;0.90;;
70487;SDS011;57976;48.174;16.370;2022-10-03T05:40:25;6.10;;;1.00;;
70487;SDS011;57976;48.174;16.370;2022-10-03T05:42:36;5.40;;;1.10;;
70487;SDS011;57976;48.174;16.370;2022-10-03T05:44:55;6.70;;;1.20;;
70487;SDS011;57976;48.174;16.370;2022-10-03T05:47:06;5.10;;;0.90;;
70487;SDS011;57976;48.174;16.370;2022-10-03T05:49:29;6.30;;;1.20;;
70487;SDS011;57976;48.174;16.370;2022-10-03T05:52:02;4.90;;;0.90;;
70487;SDS011;57976;48.174;16.370;2022-10-03T05:54:38;5.00;;;1.30;;
70487;SDS011;57976;48.174;16.370;2022-10-03T05:57:00;5.90;;;1.10;;
70487;SDS011;57976;48.174;16.370;2022-10-03T05:59:33;5.90;;;1.30;;
70487;SDS011;57976;48.174;16.370;2022-10-03T06:04:35;7.40;;;1.50;;
70487;SDS011;57976;48.174;16.370;2022-10-03T06:06:59;5.10;;;1.20;;
70487;SDS011;57976;48.174;16.370;2022-10-03T06:09:25;5.10;;;1.00;;
70487;SDS011;57976;48.174;16.370;2022-10-03T06:11:52;6.70;;;1.00;;
70487;SDS011;57976;48.174;16.370;2022-10-03T06:16:38;3.60;;;0.80;;
70487;SDS011;57976;48.174;16.370;2022-10-03T06:19:08;5.80;;;0.90;;
70487;SDS011;57976;48.174;16.370;2022-10-03T06:29:33;4.70;;;0.80;;
70487;SDS011;57976;48.174;16.370;2022-10-03T06:37:15;5.70;;;1.00;;
70487;SDS011;57976;48.174;16.370;2022-10-03T06:40:00;5.30;;;0.90;;
70487;SDS011;57976;48.174;16.370;2022-10-03T06:42:38;5.40;;;0.80;;
70487;SDS011;57976;48.174;16.370;2022-10-03T06:47:44;4.10;;;0.80;;
70487;SDS011;57976;48.174;16.370;2022-10-03T06:52:43;4.90;;;0.70;;
70487;SDS011;57976;48.174;16.370;2022-10-03T06:55:22;4.30;;;0.80;;
70487;SDS011;57976;48.174;16.370;2022-10-03T07:00:49;6.40;;;0.80;;
70487;SDS011;57976;48.174;16.370;2022-10-03T07:03:21;4.60;;;0.70;;
70487;SDS011;57976;48.174;16.370;2022-10-03T07:05:55;5.50;;;0.80;;
70487;SDS011;57976;48.174;16.370;2022-10-03T07:08:40;5.10;;;0.70;;
70487;SDS011;57976;48.174;16.370;2022-10-03T07:11:10;4.30;;;0.60;;
70487;SDS011;57976;48.174;16.370;2022-10-03T07:16:04;4.30;;;0.60;;
70487;SDS011;57976;48.174;16.370;2022-10-03T07:21:29;3.80;;;0.60;;
70487;SDS011;57976;48.174;16.370;2022-10-03T07:29:10;5.00;;;0.70;;
70487;SDS011;57976;48.174;16.370;2022-10-03T07:31:31;5.20;;;0.70;;
70487;SDS011;57976;48.174;16.370;2022-10-03T07:33:59;5.00;;;0.90;;
70487;SDS011;57976;48.174;16.370;2022-10-03T07:36:41;5.60;;;0.70;;
70487;SDS011;57976;48.174;16.370;2022-10-03T07:39:01;4.30;;;0.70;;
70487;SDS011;57976;48.174;16.370;2022-10-03T07:44:40;5.70;;;0.80;;
70487;SDS011;57976;48.174;16.370;2022-10-03T07:47:19;3.70;;;0.70;;
70487;SDS011;57976;48.174;16.370;2022-10-03T07:52:32;3.90;;;0.60;;
70487;SDS011;57976;48.174;16.370;2022-10-03T07:54:54;5.30;;;0.70;;
70487;SDS011;57976;48.174;16.370;2022-10-03T07:57:19;6.50;;;0.80;;
70487;SDS011;57976;48.174;16.370;2022-10-03T08:02:36;6.90;;;1.00;;
70487;SDS011;57976;48.174;16.370;2022-10-03T08:05:01;4.00;;;0.60;;
70487;SDS011;57976;48.174;16.370;2022-10-03T08:09:50;5.00;;;0.60;;
70487;SDS011;57976;48.174;16.370;2022-10-03T08:12:20;4.60;;;0.60;;
70487;SDS011;57976;48.174;16.370;2022-10-03T08:14:39;3.60;;;0.60;;
70487;SDS011;57976;48.174;16.370;2022-10-03T08:17:04;4.00;;;0.60;;
70487;SDS011;57976;48.174;16.370;2022-10-03T08:19:29;3.60;;;0.60;;
70487;SDS011;57976;48.174;16.370;2022-10-03T08:21:54;4.20;;;0.60;;
70487;SDS011;57976;48.174;16.370;2022-10-03T08:24:11;4.70;;;0.70;;
70487;SDS011;57976;48.174;16.370;2022-10-03T08:26:30;4.70;;;0.80;;
70487;SDS011;57976;48.174;16.370;2022-10-03T08:28:52;3.90;;;0.50;;
70487;SDS011;57976;48.174;16.370;2022-10-03T08:31:20;3.80;;;0.50;;
70487;SDS011;57976;48.174;16.370;2022-10-03T08:36:56;5.00;;;0.60;;
70487;SDS011;57976;48.174;16.370;2022-10-03T08:44:36;3.90;;;0.50;;
70487;SDS011;57976;48.174;16.370;2022-10-03T08:49:56;4.60;;;1.00;;
70487;SDS011;57976;48.174;16.370;2022-10-03T08:52:25;4.60;;;0.80;;
70487;SDS011;57976;48.174;16.370;2022-10-03T08:54:47;5.60;;;0.70;;
70487;SDS011;57976;48.174;16.370;2022-10-03T08:57:16;4.40;;;0.90;;
70487;SDS011;57976;48.174;16.370;2022-10-03T08:59:45;4.60;;;0.50;;
70487;SDS011;57976;48.174;16.370;2022-10-03T09:08:12;3.20;;;0.50;;
70487;SDS011;57976;48.174;16.370;2022-10-03T09:10:55;4.10;;;0.80;;
70487;SDS011;57976;48.174;16.370;2022-10-03T09:13:29;4.00;;;0.80;;
70487;SDS011;57976;48.174;16.370;2022-10-03T09:18:48;3.90;;;0.40;;
70487;SDS011;57976;48.174;16.370;2022-10-03T09:26:32;3.80;;;0.50;;
70487;SDS011;57976;48.174;16.370;2022-10-03T09:29:08;3.60;;;0.70;;
70487;SDS011;57976;48.174;16.370;2022-10-03T09:31:50;3.60;;;0.50;;
70487;SDS011;57976;48.174;16.370;2022-10-03T09:34:22;3.90;;;0.60;;
70487;SDS011;57976;48.174;16.370;2022-10-03T09:39:31;3.60;;;0.70;;
70487;SDS011;57976;48.174;16.370;2022-10-03T09:52:58;2.70;;;0.50;;
70487;SDS011;57976;48.174;16.370;2022-10-03T09:55:31;3.40;;;0.40;;
70487;SDS011;57976;48.174;16.370;2022-10-03T09:58:03;3.60;;;0.50;;
70487;SDS011;57976;48.174;16.370;2022-10-03T10:00:32;3.70;;;0.60;;
70487;SDS011;57976;48.174;16.370;2022-10-03T10:08:43;3.20;;;0.40;;
70487;SDS011;57976;48.174;16.370;2022-10-03T10:11:08;2.90;;;0.30;;
70487;SDS011;57976;48.174;16.370;2022-10-03T10:13:28;3.40;;;0.40;;
70487;SDS011;57976;48.174;16.370;2022-10-03T10:16:13;3.60;;;0.40;;
70487;SDS011;57976;48.174;16.370;2022-10-03T10:18:34;4.20;;;0.40;;
70487;SDS011;57976;48.174;16.370;2022-10-03T10:21:25;2.80;;;0.50;;
70487;SDS011;57976;48.174;16.370;2022-10-03T10:23:46;3.40;;;0.60;;
70487;SDS011;57976;48.174;16.370;2022-10-03T10:26:06;3.10;;;0.40;;
70487;SDS011;57976;48.174;16.370;2022-10-03T10:28:49;2.50;;;0.50;;
70487;SDS011;57976;48.174;16.370;2022-10-03T10:31:24;2.20;;;0.50;;
70487;SDS011;57976;48.174;16.370;2022-10-03T10:34:10;2.80;;;0.40;;
70487;SDS011;57976;48.174;16.370;2022-10-03T10:47:49;4.50;;;0.60;;
70487;SDS011;57976;48.174;16.370;2022-10-03T10:58:39;3.20;;;0.20;;
70487;SDS011;57976;48.174;16.370;2022-10-03T11:01:23;4.00;;;0.60;;
70487;SDS011;57976;48.174;16.370;2022-10-03T11:06:44;2.50;;;0.40;;
70487;SDS011;57976;48.174;16.370;2022-10-03T11:14:31;2.20;;;0.40;;
70487;SDS011;57976;48.174;16.370;2022-10-03T11:17:10;3.30;;;0.30;;
70487;SDS011;57976;48.174;16.370;2022-10-03T11:19:43;2.50;;;0.40;;
70487;SDS011;57976;48.174;16.370;2022-10-03T11:30:22;2.40;;;0.40;;
70487;SDS011;57976;48.174;16.370;2022-10-03T11:37:52;4.10;;;0.50;;
70487;SDS011;57976;48.174;16.370;2022-10-03T11:40:07;3.00;;;0.40;;
70487;SDS011;57976;48.174;16.370;2022-10-03T11:42:28;3.30;;;0.50;;
70487;SDS011;57976;48.174;16.370;2022-10-03T11:44:54;3.20;;;0.50;;
70487;SDS011;57976;48.174;16.370;2022-10-03T11:47:04;4.60;;;0.60;;
70487;SDS011;57976;48.174;16.370;2022-10-03T11:49:39;3.60;;;0.50;;
70487;SDS011;57976;48.174;16.370;2022-10-03T11:52:02;3.00;;;0.40;;
70487;SDS011;57976;48.174;16.370;2022-10-03T11:54:20;3.80;;;0.40;;
70487;SDS011;57976;48.174;16.370;2022-10-03T11:56:36;3.50;;;0.60;;
70487;SDS011;57976;48.174;16.370;2022-10-03T11:58:55;5.30;;;0.80;;
70487;SDS011;57976;48.174;16.370;2022-10-03T12:01:24;4.40;;;0.70;;
70487;SDS011;57976;48.174;16.370;2022-10-03T12:03:40;5.40;;;1.20;;
70487;SDS011;57976;48.174;16.370;2022-10-03T12:05:55;4.50;;;1.10;;
70487;SDS011;57976;48.174;16.370;2022-10-03T12:08:07;4.20;;;0.80;;
70487;SDS011;57976;48.174;16.370;2022-10-03T12:10:24;3.00;;;0.50;;
70487;SDS011;57976;48.174;16.370;2022-10-03T12:12:39;3.10;;;0.70;;
70487;SDS011;57976;48.174;16.370;2022-10-03T12:14:48;2.60;;;0.50;;
70487;SDS011;57976;48.174;16.370;2022-10-03T12:17:01;2.80;;;0.30;;
70487;SDS011;57976;48.174;16.370;2022-10-03T12:19:14;3.60;;;0.50;;
70487;SDS011;57976;48.174;16.370;2022-10-03T12:21:32;1.90;;;0.40;;
70487;SDS011;57976;48.174;16.370;2022-10-03T12:23:52;2.00;;;0.40;;
70487;SDS011;57976;48.174;16.370;2022-10-03T12:26:03;4.00;;;0.40;;
70487;SDS011;57976;48.174;16.370;2022-10-03T12:28:18;1.80;;;0.40;;
70487;SDS011;57976;48.174;16.370;2022-10-03T12:30:26;2.80;;;0.60;;
70487;SDS011;57976;48.174;16.370;2022-10-03T12:32:40;3.10;;;0.50;;
70487;SDS011;57976;48.174;16.370;2022-10-03T12:34:55;3.60;;;0.50;;
70487;SDS011;57976;48.174;16.370;2022-10-03T12:37:16;3.70;;;0.50;;
70487;SDS011;57976;48.174;16.370;2022-10-03T12:39:33;2.40;;;0.50;;
70487;SDS011;57976;48.174;16.370;2022-10-03T12:41:54;3.00;;;0.50;;
70487;SDS011;57976;48.174;16.370;2022-10-03T12:44:11;2.20;;;0.30;;
70487;SDS011;57976;48.174;16.370;2022-10-03T12:46:29;1.90;;;0.40;;
70487;SDS011;57976;48.174;16.370;2022-10-03T12:48:40;2.00;;;0.40;;
70487;SDS011;57976;48.174;16.370;2022-10-03T12:50:53;2.70;;;0.30;;
70487;SDS011;57976;48.174;16.370;2022-10-03T12:53:08;2.80;;;0.40;;
70487;SDS011;57976;48.174;16.370;2022-10-03T12:55:25;2.00;;;0.40;;
70487;SDS011;57976;48.174;16.370;2022-10-03T13:00:03;2.60;;;0.50;;
70487;SDS011;57976;48.174;16.370;2022-10-03T13:02:26;3.80;;;0.70;;
70487;SDS011;57976;48.174;16.370;2022-10-03T13:04:39;2.50;;;0.50;;
70487;SDS011;57976;48.174;16.370;2022-10-03T13:06:58;3.70;;;0.50;;
70487;SDS011;57976;48.174;16.370;2022-10-03T13:09:22;3.10;;;0.40;;
70487;SDS011;57976;48.174;16.370;2022-10-03T13:11:41;3.60;;;0.40;;
70487;SDS011;57976;48.174;16.370;2022-10-03T13:14:00;3.10;;;0.40;;
70487;SDS011;57976;48.174;16.370;2022-10-03T13:16:14;3.70;;;0.40;;
70487;SDS011;57976;48.174;16.370;2022-10-03T13:18:29;2.30;;;0.30;;
70487;SDS011;57976;48.174;16.370;2022-10-03T13:20:49;1.90;;;0.40;;
70487;SDS011;57976;48.174;16.370;2022-10-03T13:23:02;2.00;;;0.50;;
70487;SDS011;57976;48.174;16.370;2022-10-03T13:25:15;3.10;;;0.40;;
70487;SDS011;57976;48.174;16.370;2022-10-03T13:27:29;3.40;;;0.50;;
70487;SDS011;57976;48.174;16.370;2022-10-03T13:29:41;2.40;;;0.60;;
70487;SDS011;57976;48.174;16.370;2022-10-03T13:34:16;1.70;;;0.40;;
70487;SDS011;57976;48.174;16.370;2022-10-03T13:36:27;3.00;;;0.40;;
70487;SDS011;57976;48.174;16.370;2022-10-03T13:38:59;2.30;;;0.40;;
70487;SDS011;57976;48.174;16.370;2022-10-03T13:41:19;2.70;;;0.50;;
70487;SDS011;57976;48.174;16.370;2022-10-03T13:43:31;2.60;;;0.60;;
70487;SDS011;57976;48.174;16.370;2022-10-03T13:45:41;3.30;;;0.40;;
70487;SDS011;57976;48.174;16.370;2022-10-03T13:47:50;3.00;;;0.50;;
70487;SDS011;57976;48.174;16.370;2022-10-03T13:49:58;2.80;;;0.60;;
70487;SDS011;57976;48.174;16.370;2022-10-03T13:52:08;2.70;;;0.40;;
70487;SDS011;57976;48.174;16.370;2022-10-03T13:54:19;3.70;;;0.50;;
70487;SDS011;57976;48.174;16.370;2022-10-03T13:56:42;2.30;;;0.40;;
70487;SDS011;57976;48.174;16.370;2022-10-03T13:58:51;1.70;;;0.40;;
70487;SDS011;57976;48.174;16.370;2022-10-03T14:01:26;2.40;;;0.50;;
70487;SDS011;57976;48.174;16.370;2022-10-03T14:03:44;2.10;;;0.50;;
70487;SDS011;57976;48.174;16.370;2022-10-03T14:06:05;2.30;;;0.40;;
70487;SDS011;57976;48.174;16.370;2022-10-03T14:08:24;2.00;;;0.50;;
70487;SDS011;57976;48.174;16.370;2022-10-03T14:10:51;3.20;;;0.60;;
70487;SDS011;57976;48.174;16.370;2022-10-03T14:13:13;2.30;;;0.40;;
70487;SDS011;57976;48.174;16.370;2022-10-03T14:15:38;3.70;;;0.60;;
70487;SDS011;57976;48.174;16.370;2022-10-03T14:17:51;2.30;;;0.70;;
70487;SDS011;57976;48.174;16.370;2022-10-03T14:20:11;2.60;;;0.60;;
70487;SDS011;57976;48.174;16.370;2022-10-03T14:22:29;3.70;;;0.70;;
70487;SDS011;57976;48.174;16.370;2022-10-03T14:24:47;2.90;;;0.50;;
70487;SDS011;57976;48.174;16.370;2022-10-03T14:27:11;4.20;;;0.80;;
70487;SDS011;57976;48.174;16.370;2022-10-03T14:29:32;4.90;;;0.80;;
70487;SDS011;57976;48.174;16.370;2022-10-03T14:31:47;3.10;;;0.70;;
70487;SDS011;57976;48.174;16.370;2022-10-03T14:34:00;4.40;;;0.90;;
70487;SDS011;57976;48.174;16.370;2022-10-03T14:36:22;2.90;;;0.50;;
70487;SDS011;57976;48.174;16.370;2022-10-03T14:41:20;3.50;;;0.80;;
70487;SDS011;57976;48.174;16.370;2022-10-03T14:43:35;3.50;;;0.60;;
70487;SDS011;57976;48.174;16.370;2022-10-03T14:45:47;2.70;;;0.70;;
70487;SDS011;57976;48.174;16.370;2022-10-03T14:47:56;3.90;;;0.70;;
70487;SDS011;57976;48.174;16.370;2022-10-03T14:50:05;5.50;;;1.00;;
70487;SDS011;57976;48.174;16.370;2022-10-03T14:52:19;3.80;;;0.70;;
70487;SDS011;57976;48.174;16.370;2022-10-03T14:54:31;3.70;;;0.80;;
70487;SDS011;57976;48.174;16.370;2022-10-03T14:56:40;3.80;;;0.80;;
70487;SDS011;57976;48.174;16.370;2022-10-03T14:58:49;3.70;;;0.80;;
70487;SDS011;57976;48.174;16.370;2022-10-03T15:01:01;3.90;;;0.80;;
70487;SDS011;57976;48.174;16.370;2022-10-03T15:03:28;4.50;;;0.90;;
70487;SDS011;57976;48.174;16.370;2022-10-03T15:05:49;3.50;;;0.80;;
70487;SDS011;57976;48.174;16.370;2022-10-03T15:07:56;3.00;;;0.80;;
70487;SDS011;57976;48.174;16.370;2022-10-03T15:10:02;3.60;;;0.70;;
70487;SDS011;57976;48.174;16.370;2022-10-03T15:12:13;3.30;;;0.80;;
70487;SDS011;57976;48.174;16.370;2022-10-03T15:14:20;4.60;;;0.90;;
70487;SDS011;57976;48.174;16.370;2022-10-03T15:16:27;3.40;;;0.80;;
70487;SDS011;57976;48.174;16.370;2022-10-03T15:18:35;4.30;;;0.90;;
70487;SDS011;57976;48.174;16.370;2022-10-03T15:20:43;3.80;;;0.90;;
70487;SDS011;57976;48.174;16.370;2022-10-03T15:22:50;4.80;;;0.80;;
70487;SDS011;57976;48.174;16.370;2022-10-03T15:25:00;5.20;;;1.00;;
70487;SDS011;57976;48.174;16.370;2022-10-03T15:27:11;4.00;;;0.90;;
70487;SDS011;57976;48.174;16.370;2022-10-03T15:29:20;4.10;;;0.90;;
70487;SDS011;57976;48.174;16.370;2022-10-03T15:31:32;4.80;;;1.30;;
70487;SDS011;57976;48.174;16.370;2022-10-03T15:33:39;5.00;;;1.30;;
70487;SDS011;57976;48.174;16.370;2022-10-03T15:35:47;4.30;;;1.00;;
70487;SDS011;57976;48.174;16.370;2022-10-03T15:37:57;3.80;;;1.00;;
70487;SDS011;57976;48.174;16.370;2022-10-03T15:40:20;4.50;;;1.10;;
70487;SDS011;57976;48.174;16.370;2022-10-03T15:42:31;2.80;;;0.70;;
70487;SDS011;57976;48.174;16.370;2022-10-03T15:44:50;3.20;;;0.90;;
70487;SDS011;57976;48.174;16.370;2022-10-03T15:46:59;3.60;;;1.00;;
70487;SDS011;57976;48.174;16.370;2022-10-03T15:49:13;3.60;;;0.80;;
70487;SDS011;57976;48.174;16.370;2022-10-03T15:51:24;3.90;;;0.90;;
70487;SDS011;57976;48.174;16.370;2022-10-03T15:53:33;4.50;;;0.90;;
70487;SDS011;57976;48.174;16.370;2022-10-03T15:55:41;4.40;;;0.90;;
70487;SDS011;57976;48.174;16.370;2022-10-03T15:57:50;3.70;;;0.90;;
70487;SDS011;57976;48.174;16.370;2022-10-03T16:00:01;4.40;;;1.10;;
70487;SDS011;57976;48.174;16.370;2022-10-03T16:02:14;3.60;;;0.90;;
70487;SDS011;57976;48.174;16.370;2022-10-03T16:04:22;3.80;;;0.90;;
70487;SDS011;57976;48.174;16.370;2022-10-03T16:06:32;4.70;;;1.50;;
70487;SDS011;57976;48.174;16.370;2022-10-03T16:08:49;4.50;;;0.90;;
70487;SDS011;57976;48.174;16.370;2022-10-03T16:11:04;4.60;;;1.20;;
70487;SDS011;57976;48.174;16.370;2022-10-03T16:13:20;4.20;;;0.90;;
70487;SDS011;57976;48.174;16.370;2022-10-03T16:15:42;4.40;;;0.90;;
70487;SDS011;57976;48.174;16.370;2022-10-03T16:18:08;3.60;;;0.90;;
70487;SDS011;57976;48.174;16.370;2022-10-03T16:20:36;4.20;;;0.90;;
70487;SDS011;57976;48.174;16.370;2022-10-03T16:22:43;3.80;;;0.90;;
70487;SDS011;57976;48.174;16.370;2022-10-03T16:24:58;3.70;;;0.70;;
70487;SDS011;57976;48.174;16.370;2022-10-03T16:27:15;3.80;;;0.90;;
70487;SDS011;57976;48.174;16.370;2022-10-03T16:29:25;3.00;;;0.90;;
70487;SDS011;57976;48.174;16.370;2022-10-03T16:31:35;4.10;;;1.00;;
70487;SDS011;57976;48.174;16.370;2022-10-03T16:33:50;4.70;;;0.90;;
70487;SDS011;57976;48.174;16.370;2022-10-03T16:36:00;2.90;;;0.70;;
70487;SDS011;57976;48.174;16.370;2022-10-03T16:38:16;3.60;;;1.00;;
70487;SDS011;57976;48.174;16.370;2022-10-03T16:40:25;4.30;;;1.10;;
70487;SDS011;57976;48.174;16.370;2022-10-03T16:42:37;4.20;;;0.90;;
70487;SDS011;57976;48.174;16.370;2022-10-03T16:44:48;3.10;;;0.80;;
70487;SDS011;57976;48.174;16.370;2022-10-03T16:46:55;3.60;;;0.80;;
70487;SDS011;57976;48.174;16.370;2022-10-03T16:49:10;6.20;;;1.10;;
70487;SDS011;57976;48.174;16.370;2022-10-03T16:51:35;4.10;;;0.80;;
70487;SDS011;57976;48.174;16.370;2022-10-03T16:53:42;4.70;;;1.30;;